Time;durP1;ratioP1;P1;durP2;ratioP2;P2;SDS_P1;SDS_P2;PMS_P1;PMS_P2;Temp;Humidity;BMP_temperature;BMP_pressure;BME280_temperature;BME280_humidity;BME280_pressure;Samples;Min_cycle;Max_cycle;Signal;HPM_P1;HPM_P2
2023/04/04 00:01:39;;;;;;;;;;;1.70;99.90;;;;;;5058426;28;19924;-78
2023/04/04 00:04:04;;;;;;;;;;;1.70;99.90;;;;;;5079104;28;19924;-78
2023/04/04 00:06:30;;;;;;;;;;;1.70;99.90;;;;;;5060851;28;19924;-78
2023/04/04 00:08:56;;;;;;;;;;;1.60;99.90;;;;;;5077184;28;19924;-78
2023/04/04 00:11:21;;;;;;;;;;;1.50;99.90;;;;;;5077740;28;19928;-78
2023/04/04 00:13:47;;;;;;;;;;;1.50;99.90;;;;;;5095273;28;19977;-78
2023/04/04 00:16:12;;;;;;;;;;;1.40;99.90;;;;;;5094886;28;19924;-78
2023/04/04 00:18:38;;;;;;;;;;;1.40;99.90;;;;;;5057739;28;19931;-78
2023/04/04 00:21:04;;;;;;;;;;;1.40;99.90;;;;;;5078931;28;19967;-78
2023/04/04 00:23:29;;;;;;;;;;;1.40;99.90;;;;;;5089842;28;19924;-78
2023/04/04 00:25:55;;;;;;;;;;;1.30;99.90;;;;;;5058601;28;19928;-78
2023/04/04 00:28:20;;;;;;;;;;;1.20;99.90;;;;;;5093137;28;19931;-78
2023/04/04 00:30:46;;;;;;;;;;;1.20;99.90;;;;;;5079280;28;19982;-78
2023/04/04 00:33:12;;;;;;;;;;;1.20;99.90;;;;;;5077705;28;19935;-78
2023/04/04 00:35:38;;;;;;;;;;;1.20;99.90;;;;;;5100472;28;20303;-78
2023/04/04 00:38:03;;;;;;;;;;;1.20;99.90;;;;;;5081077;28;19939;-77
2023/04/04 00:40:29;;;;;;;;;;;1.10;99.90;;;;;;5113496;28;19928;-78
2023/04/04 00:42:56;;;;;;;;;;;1.00;99.90;;;;;;5080937;28;19983;-78
2023/04/04 00:45:22;;;;;;;;;;;1.00;99.90;;;;;;5081138;28;20476;-78
2023/04/04 00:47:47;;;;;;;;;;;1.00;99.90;;;;;;5075472;28;19931;-78
2023/04/04 00:50:13;;;;;;;;;;;1.10;99.90;;;;;;5097932;28;19931;-78
2023/04/04 00:52:39;;;;;;;;;;;1.10;99.90;;;;;;5081583;28;19967;-78
2023/04/04 00:55:05;;;;;;;;;;;1.10;99.90;;;;;;5080669;28;19950;-78
2023/04/04 00:57:32;;;;;;;;;;;1.00;99.90;;;;;;5100529;28;19936;-78
2023/04/04 00:59:58;;;;;;;;;;;0.90;99.90;;;;;;5065459;28;20011;-78
2023/04/04 01:02:23;;;;;;;;;;;0.90;99.90;;;;;;5081347;28;19979;-78
2023/04/04 01:04:50;;;;;;;;;;;0.80;99.90;;;;;;5079328;28;19991;-78
2023/04/04 01:07:16;;;;;;;;;;;0.70;99.90;;;;;;5081984;28;19958;-78
2023/04/04 01:09:41;;;;;;;;;;;0.70;99.90;;;;;;5080782;28;19963;-78
2023/04/04 01:12:07;;;;;;;;;;;0.70;99.90;;;;;;5097959;28;19931;-78
2023/04/04 01:14:33;;;;;;;;;;;0.70;99.90;;;;;;5063254;28;20019;-78
2023/04/04 01:17:01;;;;;;;;;;;0.60;99.90;;;;;;5081587;28;19935;-78
2023/04/04 01:19:32;;;;;;;;;;;0.60;99.90;;;;;;5082449;28;19991;-78
2023/04/04 01:21:58;;;;;;;;;;;0.50;99.90;;;;;;5099036;28;19938;-78
2023/04/04 01:24:24;;;;;;;;;;;0.50;99.90;;;;;;5081486;28;19928;-78
2023/04/04 01:26:50;;;;;;;;;;;0.40;99.90;;;;;;5099287;28;20380;-78
2023/04/04 01:29:16;;;;;;;;;;;0.50;99.90;;;;;;5056641;28;19962;-78
2023/04/04 01:31:45;;;;;;;;;;;0.60;99.90;;;;;;5082854;28;19928;-78
2023/04/04 01:34:19;;;;;;;;;;;0.60;99.90;;;;;;5099311;28;19928;-78
2023/04/04 01:36:56;;;;;;;;;;;0.60;99.90;;;;;;5079750;28;19924;-78
2023/04/04 01:39:26;;;;;;;;;;;0.50;99.90;;;;;;5087252;28;20380;-78
2023/04/04 01:41:53;;;;;;;;;;;0.40;99.90;;;;;;5097840;28;19975;-78
2023/04/04 01:44:18;;;;;;;;;;;0.40;99.90;;;;;;5082124;28;19924;-78
2023/04/04 01:46:44;;;;;;;;;;;0.40;99.90;;;;;;5064523;28;19946;-78
2023/04/04 01:49:10;;;;;;;;;;;0.40;99.90;;;;;;5065358;28;19924;-78
2023/04/04 01:51:35;;;;;;;;;;;0.40;99.90;;;;;;5077923;28;19931;-78
2023/04/04 01:54:01;;;;;;;;;;;0.50;99.90;;;;;;5078731;28;19928;-78
2023/04/04 01:56:26;;;;;;;;;;;0.40;99.90;;;;;;5079443;28;20393;-78
2023/04/04 01:58:52;;;;;;;;;;;0.40;99.90;;;;;;5080101;28;19924;-78
2023/04/04 02:01:18;;;;;;;;;;;0.30;99.90;;;;;;5079518;28;19988;-78
2023/04/04 02:03:44;;;;;;;;;;;0.40;99.90;;;;;;5067385;28;19931;-78
2023/04/04 02:06:10;;;;;;;;;;;0.30;99.90;;;;;;5076017;28;19924;-78
2023/04/04 02:08:37;;;;;;;;;;;0.30;99.90;;;;;;5079683;28;19928;-78
2023/04/04 02:11:02;;;;;;;;;;;0.40;99.90;;;;;;5095196;28;19924;-78
2023/04/04 02:13:28;;;;;;;;;;;0.30;99.90;;;;;;5080401;28;19939;-79
2023/04/04 02:15:54;;;;;;;;;;;0.30;99.90;;;;;;5080903;28;19928;-79
2023/04/04 02:18:19;;;;;;;;;;;0.40;99.90;;;;;;5064013;28;19935;-79
2023/04/04 02:20:45;;;;;;;;;;;0.30;99.90;;;;;;5096166;28;19924;-78
2023/04/04 02:23:10;;;;;;;;;;;0.20;99.90;;;;;;5096512;28;20013;-79
2023/04/04 02:25:36;;;;;;;;;;;0.20;99.90;;;;;;5076053;28;19935;-78
2023/04/04 02:28:02;;;;;;;;;;;0.20;99.90;;;;;;5061825;28;19932;-79
2023/04/04 02:30:27;;;;;;;;;;;0.10;99.90;;;;;;5080959;28;20386;-79
2023/04/04 02:32:56;;;;;;;;;;;0.20;99.90;;;;;;5078854;28;19930;-79
2023/04/04 02:35:21;;;;;;;;;;;0.10;99.90;;;;;;5080400;28;19987;-79
2023/04/04 02:37:47;;;;;;;;;;;0.20;99.90;;;;;;5073684;28;19955;-79
2023/04/04 02:40:13;;;;;;;;;;;0.30;99.90;;;;;;5078691;28;19943;-78
2023/04/04 02:42:42;;;;;;;;;;;0.20;99.90;;;;;;5094869;28;19928;-79
2023/04/04 02:45:08;;;;;;;;;;;0.10;99.90;;;;;;5096885;28;19930;-79
2023/04/04 02:47:34;;;;;;;;;;;0.10;99.90;;;;;;5079198;28;19924;-78
2023/04/04 02:50:00;;;;;;;;;;;0.10;99.90;;;;;;5080025;28;19931;-79
2023/04/04 02:52:25;;;;;;;;;;;0.10;99.90;;;;;;5079287;28;20028;-79
2023/04/04 02:54:51;;;;;;;;;;;0.00;99.90;;;;;;5079705;28;19928;-79
2023/04/04 02:57:17;;;;;;;;;;;0.10;99.90;;;;;;5083495;28;20405;-79
2023/04/04 02:59:42;;;;;;;;;;;0.10;99.90;;;;;;5079351;28;19924;-78
2023/04/04 03:02:08;;;;;;;;;;;0.20;99.90;;;;;;5064213;28;19983;-79
2023/04/04 03:04:35;;;;;;;;;;;0.10;99.90;;;;;;5077941;28;19978;-79
2023/04/04 03:07:02;;;;;;;;;;;0.10;99.90;;;;;;5064265;28;20401;-78
2023/04/04 03:09:28;;;;;;;;;;;0.00;99.90;;;;;;5078429;28;19931;-79
2023/04/04 03:11:54;;;;;;;;;;;0.00;99.90;;;;;;5080690;28;19924;-79
2023/04/04 03:14:20;;;;;;;;;;;0.00;99.90;;;;;;5076847;28;20447;-79
2023/04/04 03:16:48;;;;;;;;;;;0.10;99.90;;;;;;5059902;28;19978;-79
2023/04/04 03:19:14;;;;;;;;;;;0.10;99.90;;;;;;5075548;28;19931;-79
2023/04/04 03:21:40;;;;;;;;;;;0.20;99.90;;;;;;5080122;28;19931;-79
2023/04/04 03:24:05;;;;;;;;;;;0.10;99.90;;;;;;5094197;28;19928;-79
2023/04/04 03:26:31;;;;;;;;;;;0.10;99.90;;;;;;5077412;28;20508;-79
2023/04/04 03:28:57;;;;;;;;;;;0.10;99.90;;;;;;5079571;28;20436;-78
2023/04/04 03:31:22;;;;;;;;;;;0.00;99.90;;;;;;5078648;28;19932;-79
2023/04/04 03:33:48;;;;;;;;;;;-0.10;99.90;;;;;;5063101;28;19946;-79
2023/04/04 03:36:14;;;;;;;;;;;-0.10;99.90;;;;;;5076955;28;20020;-79
2023/04/04 03:38:40;;;;;;;;;;;-0.20;99.90;;;;;;5049758;28;19951;-78
2023/04/04 03:41:06;;;;;;;;;;;-0.20;99.90;;;;;;5078212;28;19924;-79
2023/04/04 03:43:32;;;;;;;;;;;-0.20;99.90;;;;;;5062855;28;19933;-79
2023/04/04 03:46:04;;;;;;;;;;;-0.20;99.90;;;;;;5078110;28;20405;-79
2023/04/04 03:48:30;;;;;;;;;;;-0.20;99.90;;;;;;5095810;28;19935;-79
2023/04/04 03:50:56;;;;;;;;;;;-0.20;99.90;;;;;;5059384;28;19924;-79
2023/04/04 03:53:25;;;;;;;;;;;-0.20;99.90;;;;;;5078797;28;19928;-79
2023/04/04 03:55:52;;;;;;;;;;;-0.20;99.90;;;;;;5096609;28;19924;-78
2023/04/04 03:58:18;;;;;;;;;;;-0.30;99.90;;;;;;5061562;28;19924;-78
2023/04/04 04:00:43;;;;;;;;;;;-0.30;99.90;;;;;;5062868;28;20685;-79
2023/04/04 04:03:09;;;;;;;;;;;-0.40;99.90;;;;;;5077930;28;19962;-79
2023/04/04 04:05:35;;;;;;;;;;;-0.50;99.90;;;;;;5079533;28;19932;-79
2023/04/04 04:08:01;;;;;;;;;;;-0.50;99.90;;;;;;5078848;28;19928;-78
2023/04/04 04:10:26;;;;;;;;;;;-0.50;99.90;;;;;;5063284;28;19924;-78
2023/04/04 04:12:52;;;;;;;;;;;-0.50;99.90;;;;;;5079262;28;19924;-78
2023/04/04 04:15:17;;;;;;;;;;;-0.40;99.90;;;;;;5054494;28;19935;-79
2023/04/04 04:17:43;;;;;;;;;;;-0.50;99.90;;;;;;5078052;28;20664;-78
2023/04/04 04:20:09;;;;;;;;;;;-0.50;99.90;;;;;;5079598;28;19924;-79
2023/04/04 04:22:35;;;;;;;;;;;-0.40;99.90;;;;;;5096324;28;19981;-78
2023/04/04 04:25:01;;;;;;;;;;;-0.40;99.90;;;;;;5079971;28;19935;-79
2023/04/04 04:27:27;;;;;;;;;;;-0.40;99.90;;;;;;5060158;28;19971;-79
2023/04/04 04:29:52;;;;;;;;;;;-0.40;99.90;;;;;;5079664;28;20076;-79
2023/04/04 04:32:18;;;;;;;;;;;-0.40;99.90;;;;;;5060936;28;20298;-79
2023/04/04 04:34:43;;;;;;;;;;;-0.40;99.90;;;;;;5078298;28;19934;-79
2023/04/04 04:37:09;;;;;;;;;;;-0.40;99.90;;;;;;5072054;28;19946;-78
2023/04/04 04:39:35;;;;;;;;;;;-0.40;99.90;;;;;;5076768;28;19924;-79
2023/04/04 04:42:01;;;;;;;;;;;-0.40;99.90;;;;;;5061356;28;19932;-79
2023/04/04 04:44:27;;;;;;;;;;;-0.40;99.90;;;;;;5077388;28;19928;-79
2023/04/04 04:46:52;;;;;;;;;;;-0.40;99.90;;;;;;5078290;28;19935;-78
2023/04/04 04:49:18;;;;;;;;;;;-0.40;99.90;;;;;;5077529;28;20395;-79
2023/04/04 04:51:43;;;;;;;;;;;-0.40;99.90;;;;;;5060312;28;19988;-79
2023/04/04 04:54:10;;;;;;;;;;;-0.30;99.90;;;;;;5057747;28;19996;-79
2023/04/04 04:56:35;;;;;;;;;;;-0.40;99.90;;;;;;5088596;28;19924;-79
2023/04/04 04:59:01;;;;;;;;;;;-0.40;99.90;;;;;;5078005;28;19975;-79
2023/04/04 05:01:27;;;;;;;;;;;-0.40;99.90;;;;;;5077361;28;19931;-79
2023/04/04 05:03:53;;;;;;;;;;;-0.30;99.90;;;;;;5060734;28;19939;-79
2023/04/04 05:06:18;;;;;;;;;;;-0.30;99.90;;;;;;5077670;28;19931;-79
2023/04/04 05:08:44;;;;;;;;;;;-0.30;99.90;;;;;;5095207;28;19962;-79
2023/04/04 05:11:09;;;;;;;;;;;-0.40;99.90;;;;;;5056486;28;19934;-79
2023/04/04 05:13:35;;;;;;;;;;;-0.40;99.90;;;;;;5071341;28;19986;-79
2023/04/04 05:16:01;;;;;;;;;;;-0.50;99.90;;;;;;5061452;28;19928;-79
2023/04/04 05:18:27;;;;;;;;;;;-0.50;99.90;;;;;;5078804;28;19928;-79
2023/04/04 05:20:53;;;;;;;;;;;-0.60;99.90;;;;;;5081742;28;20073;-79
2023/04/04 05:23:18;;;;;;;;;;;-0.50;99.90;;;;;;5083231;28;19924;-79
2023/04/04 05:25:44;;;;;;;;;;;-0.50;99.90;;;;;;5081837;28;19928;-79
2023/04/04 05:28:09;;;;;;;;;;;-0.40;99.90;;;;;;5062593;28;19924;-79
2023/04/04 05:30:35;;;;;;;;;;;-0.30;99.90;;;;;;5075414;28;20379;-79
2023/04/04 05:33:00;;;;;;;;;;;-0.10;99.90;;;;;;5061901;28;19963;-79
2023/04/04 05:35:26;;;;;;;;;;;0.00;99.90;;;;;;5053208;28;19931;-79
2023/04/04 05:37:52;;;;;;;;;;;0.20;99.90;;;;;;5069388;28;19932;-79
2023/04/04 05:40:17;;;;;;;;;;;0.30;99.90;;;;;;5080534;28;20037;-79
2023/04/04 05:42:43;;;;;;;;;;;0.50;99.90;;;;;;5082112;28;19950;-78
2023/04/04 05:45:09;;;;;;;;;;;0.60;99.90;;;;;;5098766;28;19967;-78
2023/04/04 05:47:35;;;;;;;;;;;0.60;99.90;;;;;;5081497;28;20302;-78
2023/04/04 05:50:01;;;;;;;;;;;0.60;99.90;;;;;;5081853;28;19999;-78
2023/04/04 05:52:26;;;;;;;;;;;0.70;99.90;;;;;;5098583;28;19928;-78
2023/04/04 05:54:52;;;;;;;;;;;0.80;99.90;;;;;;5099438;28;19928;-78
2023/04/04 05:57:17;;;;;;;;;;;0.90;99.90;;;;;;5060013;28;19929;-78
2023/04/04 05:59:43;;;;;;;;;;;0.90;99.90;;;;;;5079179;28;19928;-78
2023/04/04 06:02:09;;;;;;;;;;;1.00;99.90;;;;;;5080066;28;19924;-78
2023/04/04 06:04:34;;;;;;;;;;;1.20;99.90;;;;;;5063861;28;19995;-78
2023/04/04 06:07:00;;;;;;;;;;;1.30;99.90;;;;;;5077655;28;19924;-78
2023/04/04 06:09:26;;;;;;;;;;;1.40;99.90;;;;;;5096535;28;19935;-78
2023/04/04 06:11:52;;;;;;;;;;;1.60;99.90;;;;;;5065489;28;20411;-78
2023/04/04 06:14:17;;;;;;;;;;;1.60;99.90;;;;;;5077306;28;19967;-78
2023/04/04 06:16:43;;;;;;;;;;;1.60;99.90;;;;;;5080816;28;19924;-78
2023/04/04 06:19:08;;;;;;;;;;;1.60;99.90;;;;;;5070883;28;19924;-78
2023/04/04 06:21:34;;;;;;;;;;;1.60;99.90;;;;;;5096296;28;19932;-78
2023/04/04 06:24:00;;;;;;;;;;;1.60;99.90;;;;;;5078383;28;19988;-78
2023/04/04 06:26:25;;;;;;;;;;;1.60;99.90;;;;;;5096004;28;20006;-78
2023/04/04 06:28:51;;;;;;;;;;;1.50;99.90;;;;;;5094736;28;19943;-78
2023/04/04 06:31:17;;;;;;;;;;;1.50;99.90;;;;;;5096562;28;19925;-78
2023/04/04 06:33:42;;;;;;;;;;;1.50;99.90;;;;;;5080498;28;19931;-78
2023/04/04 06:36:08;;;;;;;;;;;1.50;99.90;;;;;;5080738;28;20286;-78
2023/04/04 06:38:34;;;;;;;;;;;1.60;99.90;;;;;;5070608;28;19978;-78
2023/04/04 06:40:59;;;;;;;;;;;1.60;99.90;;;;;;5099417;28;19966;-78
2023/04/04 06:43:25;;;;;;;;;;;1.60;99.90;;;;;;5063261;28;19931;-78
2023/04/04 06:45:51;;;;;;;;;;;1.70;99.90;;;;;;5059146;28;19935;-78
2023/04/04 06:48:16;;;;;;;;;;;1.80;99.90;;;;;;5052427;28;19939;-78
2023/04/04 06:50:42;;;;;;;;;;;1.90;99.90;;;;;;5061918;28;19928;-78
2023/04/04 06:53:08;;;;;;;;;;;1.90;99.90;;;;;;5096548;28;19924;-78
2023/04/04 06:55:33;;;;;;;;;;;2.00;99.90;;;;;;5060439;28;19924;-78
2023/04/04 06:57:59;;;;;;;;;;;2.00;99.90;;;;;;5071373;28;20280;-78
2023/04/04 07:00:25;;;;;;;;;;;2.00;99.90;;;;;;5062648;28;19924;-78
2023/04/04 07:02:55;;;;;;;;;;;2.00;99.90;;;;;;5053971;28;19928;-78
2023/04/04 07:05:21;;;;;;;;;;;2.00;99.90;;;;;;5080357;28;19931;-78
2023/04/04 07:07:50;;;;;;;;;;;2.10;99.90;;;;;;5095214;28;19925;-78
2023/04/04 07:10:15;;;;;;;;;;;2.10;99.90;;;;;;5077387;28;19971;-78
2023/04/04 07:12:41;;;;;;;;;;;2.20;99.90;;;;;;5061849;28;19951;-78
2023/04/04 07:15:07;;;;;;;;;;;2.30;99.90;;;;;;5080394;28;19952;-78
2023/04/04 07:17:36;;;;;;;;;;;2.50;99.90;;;;;;5080668;28;20500;-78
2023/04/04 07:20:02;;;;;;;;;;;3.00;99.90;;;;;;5079921;28;19967;-78
2023/04/04 07:22:27;;;;;;;;;;;3.80;99.90;;;;;;5091916;28;19928;-78
2023/04/04 07:24:53;;;;;;;;;;;4.70;99.90;;;;;;5078734;28;20296;-78
2023/04/04 07:27:19;;;;;;;;;;;5.30;99.90;;;;;;5094966;28;20298;-78
2023/04/04 07:29:44;;;;;;;;;;;5.90;99.90;;;;;;5080461;28;19975;-78
2023/04/04 07:32:10;;;;;;;;;;;6.60;99.90;;;;;;5077094;28;19946;-79
2023/04/04 07:34:36;;;;;;;;;;;7.30;99.90;;;;;;5058590;28;19929;-78
2023/04/04 07:37:01;;;;;;;;;;;7.80;99.90;;;;;;5086563;28;19935;-79
2023/04/04 07:39:27;;;;;;;;;;;8.20;99.90;;;;;;5095491;28;19956;-79
2023/04/04 07:41:53;;;;;;;;;;;8.50;96.70;;;;;;5063147;28;19928;-79
2023/04/04 07:44:18;;;;;;;;;;;8.90;93.10;;;;;;5059673;28;19931;-79
2023/04/04 07:46:44;;;;;;;;;;;9.10;95.30;;;;;;5093458;28;19928;-78
2023/04/04 07:49:10;;;;;;;;;;;9.40;93.00;;;;;;5078679;28;20069;-78
2023/04/04 07:51:35;;;;;;;;;;;9.70;88.80;;;;;;5079357;28;20294;-79
2023/04/04 07:54:01;;;;;;;;;;;9.90;88.30;;;;;;5062950;28;19924;-79
2023/04/04 07:56:27;;;;;;;;;;;10.00;85.80;;;;;;5079478;28;19984;-79
2023/04/04 07:58:52;;;;;;;;;;;10.10;85.40;;;;;;5091293;28;19947;-79
2023/04/04 08:01:18;;;;;;;;;;;10.10;77.50;;;;;;5060610;28;19924;-79
2023/04/04 08:03:43;;;;;;;;;;;9.90;73.20;;;;;;5095672;28;19967;-79
2023/04/04 08:06:09;;;;;;;;;;;9.80;78.80;;;;;;5078914;28;20375;-79
2023/04/04 08:08:35;;;;;;;;;;;9.90;76.00;;;;;;5076869;28;19931;-79
2023/04/04 08:11:01;;;;;;;;;;;10.00;78.90;;;;;;5060219;28;20020;-79
2023/04/04 08:13:26;;;;;;;;;;;10.30;76.10;;;;;;5078519;28;19971;-80
2023/04/04 08:15:52;;;;;;;;;;;10.50;73.60;;;;;;5078104;28;19985;-80
2023/04/04 08:18:18;;;;;;;;;;;10.70;73.60;;;;;;5093336;28;20383;-80
2023/04/04 08:20:43;;;;;;;;;;;10.80;70.70;;;;;;5067815;28;19947;-79
2023/04/04 08:23:09;;;;;;;;;;;11.10;80.60;;;;;;5079880;28;19925;-79
2023/04/04 08:25:35;;;;;;;;;;;11.20;75.10;;;;;;5063070;28;19974;-79
2023/04/04 08:28:03;;;;;;;;;;;11.50;72.20;;;;;;5096205;28;19931;-79
2023/04/04 08:30:28;;;;;;;;;;;11.50;71.30;;;;;;5096509;28;19924;-79
2023/04/04 08:32:54;;;;;;;;;;;11.30;67.40;;;;;;5059231;28;19931;-79
2023/04/04 08:35:20;;;;;;;;;;;11.50;76.70;;;;;;5085784;28;20014;-79
2023/04/04 08:37:46;;;;;;;;;;;11.60;68.90;;;;;;5067753;28;19983;-79
2023/04/04 08:40:11;;;;;;;;;;;11.30;66.00;;;;;;5066700;28;19939;-79
2023/04/04 08:42:39;;;;;;;;;;;11.00;67.50;;;;;;5086637;28;19970;-79
2023/04/04 08:45:06;;;;;;;;;;;11.00;72.00;;;;;;5079038;28;20056;-79
2023/04/04 08:47:34;;;;;;;;;;;11.30;67.40;;;;;;5079381;28;19934;-79
2023/04/04 08:50:03;;;;;;;;;;;11.50;64.90;;;;;;5062666;28;19990;-79
2023/04/04 08:52:30;;;;;;;;;;;11.70;63.00;;;;;;5079305;28;19979;-79
2023/04/04 08:54:56;;;;;;;;;;;12.00;64.30;;;;;;5099656;28;19924;-79
2023/04/04 08:57:22;;;;;;;;;;;12.10;64.90;;;;;;5100111;28;19934;-80
2023/04/04 08:59:48;;;;;;;;;;;12.00;66.80;;;;;;5083585;28;19928;-80
2023/04/04 09:02:15;;;;;;;;;;;11.90;67.40;;;;;;5082567;28;19928;-80
2023/04/04 09:04:42;;;;;;;;;;;11.90;65.50;;;;;;5083500;28;19924;-80
2023/04/04 09:07:09;;;;;;;;;;;11.90;64.30;;;;;;5082319;28;20271;-79
2023/04/04 09:09:36;;;;;;;;;;;11.80;63.20;;;;;;5065942;28;19950;-80
2023/04/04 09:12:03;;;;;;;;;;;11.50;60.00;;;;;;5099599;28;19928;-79
2023/04/04 09:14:29;;;;;;;;;;;11.40;65.90;;;;;;5069028;28;19931;-79
2023/04/04 09:16:55;;;;;;;;;;;11.30;65.30;;;;;;5083438;28;19924;-79
2023/04/04 09:19:21;;;;;;;;;;;11.40;69.00;;;;;;5082259;28;20011;-79
2023/04/04 09:21:47;;;;;;;;;;;11.50;66.20;;;;;;5099619;28;19924;-79
2023/04/04 09:24:13;;;;;;;;;;;11.50;64.60;;;;;;5099571;28;20307;-79
2023/04/04 09:26:46;;;;;;;;;;;11.20;62.50;;;;;;5082310;28;20015;-79
2023/04/04 09:29:12;;;;;;;;;;;11.10;68.40;;;;;;5082466;28;19975;-80
2023/04/04 09:31:38;;;;;;;;;;;11.20;60.90;;;;;;5060544;28;20375;-79
2023/04/04 09:34:04;;;;;;;;;;;11.10;65.50;;;;;;5082677;28;19963;-79
2023/04/04 09:36:30;;;;;;;;;;;11.10;63.80;;;;;;5080358;28;19930;-80
2023/04/04 09:38:56;;;;;;;;;;;11.20;67.70;;;;;;5069590;28;19931;-79
2023/04/04 09:41:21;;;;;;;;;;;11.40;62.00;;;;;;5098946;28;19928;-79
2023/04/04 09:43:48;;;;;;;;;;;11.60;64.10;;;;;;5081735;28;19924;-79
2023/04/04 09:46:17;;;;;;;;;;;11.80;65.20;;;;;;5078526;28;19935;-82
2023/04/04 09:48:47;;;;;;;;;;;12.00;66.40;;;;;;5096068;28;19935;-80
2023/04/04 09:51:12;;;;;;;;;;;12.10;59.80;;;;;;5077630;28;19925;-80
2023/04/04 09:53:41;;;;;;;;;;;12.10;61.00;;;;;;5079686;28;19963;-81
2023/04/04 09:56:07;;;;;;;;;;;12.20;60.00;;;;;;5081246;28;20015;-81
2023/04/04 09:58:36;;;;;;;;;;;12.30;59.40;;;;;;5079490;28;19994;-81
2023/04/04 10:01:02;;;;;;;;;;;12.60;58.00;;;;;;5096888;28;19928;-80
2023/04/04 10:03:28;;;;;;;;;;;12.90;60.10;;;;;;5079321;28;19946;-80
2023/04/04 10:05:56;;;;;;;;;;;13.20;59.70;;;;;;5079543;28;19924;-80
2023/04/04 10:08:22;;;;;;;;;;;13.40;57.90;;;;;;5074076;28;19987;-80
2023/04/04 10:10:51;;;;;;;;;;;13.10;53.50;;;;;;5079455;28;19924;-80
2023/04/04 10:13:27;;;;;;;;;;;13.00;56.10;;;;;;5062453;28;19924;-80
2023/04/04 10:15:56;;;;;;;;;;;12.90;55.20;;;;;;5076790;28;19965;-81
2023/04/04 10:18:23;;;;;;;;;;;12.50;57.20;;;;;;5077869;28;19958;-80
2023/04/04 10:20:49;;;;;;;;;;;12.10;56.00;;;;;;5076131;28;19924;-80
2023/04/04 10:23:15;;;;;;;;;;;11.70;54.50;;;;;;5079838;28;20023;-80
2023/04/04 10:25:41;;;;;;;;;;;11.30;62.40;;;;;;5064039;28;19970;-80
2023/04/04 10:28:07;;;;;;;;;;;11.10;61.60;;;;;;5095119;28;19984;-80
2023/04/04 10:30:35;;;;;;;;;;;10.80;60.40;;;;;;5080085;28;19982;-80
2023/04/04 10:33:05;;;;;;;;;;;10.50;63.10;;;;;;5077979;28;19928;-80
2023/04/04 10:35:33;;;;;;;;;;;10.20;62.10;;;;;;5079528;28;19931;-80
2023/04/04 10:38:01;;;;;;;;;;;10.10;58.80;;;;;;5091823;28;19950;-80
2023/04/04 10:40:33;;;;;;;;;;;10.10;63.40;;;;;;5066285;28;19924;-80
2023/04/04 10:43:01;;;;;;;;;;;10.20;61.50;;;;;;5092333;28;19928;-80
2023/04/04 10:45:28;;;;;;;;;;;10.30;61.50;;;;;;5089621;28;19931;-79
2023/04/04 10:47:54;;;;;;;;;;;10.10;59.40;;;;;;5079109;28;20287;-79
2023/04/04 10:50:19;;;;;;;;;;;10.00;63.70;;;;;;5079202;28;19924;-79
2023/04/04 10:52:45;;;;;;;;;;;10.10;64.40;;;;;;5078500;28;19924;-80
2023/04/04 10:55:12;;;;;;;;;;;9.90;63.60;;;;;;5078226;28;19924;-80
2023/04/04 10:57:42;;;;;;;;;;;9.80;65.20;;;;;;5087287;28;19924;-79
2023/04/04 11:00:12;;;;;;;;;;;9.80;65.30;;;;;;5095133;28;19935;-80
2023/04/04 11:02:47;;;;;;;;;;;10.00;66.70;;;;;;5077005;28;19955;-80
2023/04/04 11:05:15;;;;;;;;;;;10.10;64.00;;;;;;5097312;28;19939;-79
2023/04/04 11:07:43;;;;;;;;;;;10.20;65.40;;;;;;5083845;28;19924;-79
2023/04/04 11:10:13;;;;;;;;;;;10.30;64.40;;;;;;5090149;28;19946;-79
2023/04/04 11:12:44;;;;;;;;;;;10.50;65.80;;;;;;5080890;28;19924;-79
2023/04/04 11:15:11;;;;;;;;;;;10.50;61.80;;;;;;5094627;28;19932;-79
2023/04/04 11:17:43;;;;;;;;;;;10.30;62.80;;;;;;5097248;28;19924;-79
2023/04/04 11:20:19;;;;;;;;;;;10.50;63.80;;;;;;5079420;28;19931;-79
2023/04/04 11:22:44;;;;;;;;;;;10.60;62.60;;;;;;5078801;28;19951;-79
2023/04/04 11:25:36;;;;;;;;;;;10.70;62.80;;;;;;5060652;28;19931;-79
2023/04/04 11:28:11;;;;;;;;;;;10.80;61.00;;;;;;5073095;28;19935;-79
2023/04/04 11:30:42;;;;;;;;;;;10.80;60.90;;;;;;5093140;28;19992;-79
2023/04/04 11:33:09;;;;;;;;;;;10.90;64.40;;;;;;5080313;28;19924;-79
2023/04/04 11:35:39;;;;;;;;;;;10.90;61.30;;;;;;5080224;28;19924;-79
2023/04/04 11:38:11;;;;;;;;;;;10.90;60.40;;;;;;5076846;28;19936;-78
2023/04/04 11:40:38;;;;;;;;;;;10.80;61.70;;;;;;5094039;28;19924;-78
2023/04/04 11:43:08;;;;;;;;;;;10.90;62.00;;;;;;5075927;28;19936;-79
2023/04/04 11:45:35;;;;;;;;;;;11.00;62.40;;;;;;5060657;28;19925;-79
2023/04/04 11:48:02;;;;;;;;;;;10.90;59.60;;;;;;5078309;28;19931;-79
2023/04/04 11:50:33;;;;;;;;;;;10.70;58.90;;;;;;5078653;28;19932;-79
2023/04/04 11:52:59;;;;;;;;;;;10.60;61.60;;;;;;5093308;28;19932;-79
2023/04/04 11:55:25;;;;;;;;;;;10.50;60.20;;;;;;5062994;28;19928;-79
2023/04/04 11:57:51;;;;;;;;;;;10.50;59.00;;;;;;5079839;28;19925;-78
2023/04/04 12:00:30;;;;;;;;;;;10.50;58.60;;;;;;5079450;28;19932;-79
2023/04/04 12:02:56;;;;;;;;;;;10.40;62.20;;;;;;5087605;28;20408;-78
2023/04/04 12:05:22;;;;;;;;;;;10.40;59.60;;;;;;5060188;28;19987;-78
2023/04/04 12:07:48;;;;;;;;;;;10.40;63.60;;;;;;5079116;28;20039;-78
2023/04/04 12:10:14;;;;;;;;;;;10.40;58.90;;;;;;5057646;28;20295;-78
2023/04/04 12:12:41;;;;;;;;;;;10.60;64.90;;;;;;5094106;28;19979;-78
2023/04/04 12:15:07;;;;;;;;;;;10.80;61.30;;;;;;5094923;28;19931;-78
2023/04/04 12:17:38;;;;;;;;;;;10.90;60.90;;;;;;5077964;28;19928;-78
2023/04/04 12:20:03;;;;;;;;;;;10.90;59.10;;;;;;5073943;28;19928;-78
2023/04/04 12:22:33;;;;;;;;;;;11.10;62.30;;;;;;5095446;28;19924;-78
2023/04/04 12:24:59;;;;;;;;;;;11.20;57.90;;;;;;5075662;28;19950;-78
2023/04/04 12:27:25;;;;;;;;;;;11.30;60.40;;;;;;5059611;28;19924;-78
2023/04/04 12:29:51;;;;;;;;;;;11.40;58.60;;;;;;5099945;28;19959;-78
2023/04/04 12:32:16;;;;;;;;;;;11.50;58.60;;;;;;5081233;28;19924;-78
2023/04/04 12:34:42;;;;;;;;;;;11.70;58.10;;;;;;5062501;28;19932;-79
2023/04/04 12:37:10;;;;;;;;;;;11.70;59.60;;;;;;5052950;28;19946;-78
2023/04/04 12:39:39;;;;;;;;;;;11.70;57.70;;;;;;5099787;28;19930;-79
2023/04/04 12:42:04;;;;;;;;;;;11.60;57.90;;;;;;5083477;28;20397;-79
2023/04/04 12:44:31;;;;;;;;;;;11.30;56.10;;;;;;5082275;28;19945;-78
2023/04/04 12:46:58;;;;;;;;;;;11.20;59.40;;;;;;5066746;28;19924;-78
2023/04/04 12:49:38;;;;;;;;;;;11.10;56.70;;;;;;5099560;28;19924;-79
2023/04/04 12:52:06;;;;;;;;;;;11.00;58.90;;;;;;5099427;28;19950;-79
2023/04/04 12:54:37;;;;;;;;;;;10.80;57.20;;;;;;5097949;28;19978;-79
2023/04/04 12:57:04;;;;;;;;;;;10.70;59.10;;;;;;5097365;28;19978;-78
2023/04/04 12:59:31;;;;;;;;;;;10.70;58.70;;;;;;5083281;28;19930;-79
2023/04/04 13:01:57;;;;;;;;;;;10.50;58.70;;;;;;5082715;28;19966;-79
2023/04/04 13:04:23;;;;;;;;;;;10.30;59.80;;;;;;5100188;28;19932;-79
2023/04/04 13:06:48;;;;;;;;;;;10.20;59.60;;;;;;5082963;28;19946;-79
2023/04/04 13:09:19;;;;;;;;;;;10.20;60.50;;;;;;5082464;28;19924;-78
2023/04/04 13:12:00;;;;;;;;;;;10.00;59.50;;;;;;5066516;28;19931;-78
2023/04/04 13:14:46;;;;;;;;;;;10.00;61.10;;;;;;5065628;28;19924;-78
2023/04/04 13:17:13;;;;;;;;;;;10.00;59.40;;;;;;5068817;28;19928;-78
2023/04/04 13:19:38;;;;;;;;;;;10.10;61.10;;;;;;5062735;28;20275;-78
2023/04/04 13:22:07;;;;;;;;;;;10.30;61.10;;;;;;5092420;28;19932;-78
2023/04/04 13:24:32;;;;;;;;;;;10.40;62.50;;;;;;5083085;28;19928;-78
2023/04/04 13:26:58;;;;;;;;;;;10.50;56.90;;;;;;5065826;28;19950;-78
2023/04/04 13:29:24;;;;;;;;;;;10.70;59.90;;;;;;5082757;28;20006;-78
2023/04/04 13:31:50;;;;;;;;;;;11.00;60.10;;;;;;5082704;28;20235;-78
2023/04/04 13:34:15;;;;;;;;;;;11.20;58.80;;;;;;5066295;28;20424;-79
2023/04/04 13:36:41;;;;;;;;;;;11.20;58.40;;;;;;5079519;28;19929;-78
2023/04/04 13:39:07;;;;;;;;;;;11.20;57.70;;;;;;5070547;28;19928;-79
2023/04/04 13:41:32;;;;;;;;;;;11.20;57.60;;;;;;5081997;28;19943;-79
2023/04/04 13:43:58;;;;;;;;;;;11.20;55.90;;;;;;5065646;28;19931;-78
2023/04/04 13:46:23;;;;;;;;;;;11.10;55.90;;;;;;5065872;28;19927;-79
2023/04/04 13:48:49;;;;;;;;;;;11.20;60.50;;;;;;5081202;28;19932;-79
2023/04/04 13:51:14;;;;;;;;;;;11.30;58.30;;;;;;5081714;28;19999;-78
2023/04/04 13:53:40;;;;;;;;;;;11.50;59.50;;;;;;5080788;28;19928;-78
2023/04/04 13:56:06;;;;;;;;;;;11.60;58.60;;;;;;5080474;28;19924;-79
2023/04/04 13:58:31;;;;;;;;;;;11.60;58.60;;;;;;5079122;28;20442;-79
2023/04/04 14:00:57;;;;;;;;;;;11.50;56.00;;;;;;5081129;28;19927;-78
2023/04/04 14:03:22;;;;;;;;;;;11.50;54.20;;;;;;5061399;28;19925;-79
2023/04/04 14:05:48;;;;;;;;;;;11.50;57.30;;;;;;5062174;28;19924;-79
2023/04/04 14:08:14;;;;;;;;;;;11.50;58.30;;;;;;5076242;28;19984;-70
2023/04/04 14:10:39;;;;;;;;;;;11.60;58.50;;;;;;5061783;28;19932;-79
2023/04/04 14:13:05;;;;;;;;;;;11.80;56.20;;;;;;5081627;28;19930;-79
2023/04/04 14:15:32;;;;;;;;;;;11.80;57.00;;;;;;5081529;28;19928;-79
2023/04/04 14:17:58;;;;;;;;;;;11.60;56.90;;;;;;5081284;28;20002;-79
2023/04/04 14:20:23;;;;;;;;;;;11.30;56.20;;;;;;5081801;28;19956;-79